sensor_id;sensor_type;location;lat;lon;timestamp;P1;durP1;ratioP1;P2;durP2;ratioP2
22046;SDS011;11187;49.412;20.956;2023-12-04T00:02:09;25.30;;;21.05;;
22046;SDS011;11187;49.412;20.956;2023-12-04T00:04:55;21.05;;;18.52;;
22046;SDS011;11187;49.412;20.956;2023-12-04T00:07:29;25.77;;;20.70;;
22046;SDS011;11187;49.412;20.956;2023-12-04T00:10:15;24.77;;;21.40;;
22046;SDS011;11187;49.412;20.956;2023-12-04T00:12:49;31.35;;;21.08;;
22046;SDS011;11187;49.412;20.956;2023-12-04T00:15:38;31.02;;;20.88;;
22046;SDS011;11187;49.412;20.956;2023-12-04T00:18:12;26.02;;;21.77;;
22046;SDS011;11187;49.412;20.956;2023-12-04T00:20:59;32.45;;;21.88;;
22046;SDS011;11187;49.412;20.956;2023-12-04T00:23:40;26.60;;;21.80;;
22046;SDS011;11187;49.412;20.956;2023-12-04T00:26:29;37.53;;;23.45;;
22046;SDS011;11187;49.412;20.956;2023-12-04T00:29:06;34.22;;;21.45;;
22046;SDS011;11187;49.412;20.956;2023-12-04T00:31:52;28.73;;;22.77;;
22046;SDS011;11187;49.412;20.956;2023-12-04T00:34:26;25.85;;;21.83;;
22046;SDS011;11187;49.412;20.956;2023-12-04T00:37:15;30.75;;;21.67;;
22046;SDS011;11187;49.412;20.956;2023-12-04T00:39:49;30.50;;;21.65;;
22046;SDS011;11187;49.412;20.956;2023-12-04T00:42:45;30.38;;;22.42;;
22046;SDS011;11187;49.412;20.956;2023-12-04T00:45:19;28.33;;;23.13;;
22046;SDS011;11187;49.412;20.956;2023-12-04T00:48:05;26.65;;;21.33;;
22046;SDS011;11187;49.412;20.956;2023-12-04T00:50:39;26.90;;;22.52;;
22046;SDS011;11187;49.412;20.956;2023-12-04T00:54:05;27.25;;;22.75;;
22046;SDS011;11187;49.412;20.956;2023-12-04T00:56:52;26.83;;;21.75;;
22046;SDS011;11187;49.412;20.956;2023-12-04T00:59:26;23.05;;;20.55;;
22046;SDS011;11187;49.412;20.956;2023-12-04T01:02:12;28.80;;;20.80;;
22046;SDS011;11187;49.412;20.956;2023-12-04T01:04:46;23.60;;;20.17;;
22046;SDS011;11187;49.412;20.956;2023-12-04T01:07:32;26.30;;;20.23;;
22046;SDS011;11187;49.412;20.956;2023-12-04T01:10:06;25.88;;;21.05;;
22046;SDS011;11187;49.412;20.956;2023-12-04T01:12:52;24.05;;;21.30;;
22046;SDS011;11187;49.412;20.956;2023-12-04T01:15:26;27.60;;;20.23;;
22046;SDS011;11187;49.412;20.956;2023-12-04T01:18:12;28.17;;;20.13;;
22046;SDS011;11187;49.412;20.956;2023-12-04T01:20:46;32.03;;;21.15;;
22046;SDS011;11187;49.412;20.956;2023-12-04T01:23:32;29.75;;;20.80;;
22046;SDS011;11187;49.412;20.956;2023-12-04T01:26:06;27.45;;;20.95;;
22046;SDS011;11187;49.412;20.956;2023-12-04T01:28:56;28.98;;;21.42;;
22046;SDS011;11187;49.412;20.956;2023-12-04T01:31:49;27.67;;;20.60;;
22046;SDS011;11187;49.412;20.956;2023-12-04T01:34:23;30.73;;;21.73;;
22046;SDS011;11187;49.412;20.956;2023-12-04T01:37:11;23.23;;;20.25;;
22046;SDS011;11187;49.412;20.956;2023-12-04T01:39:46;28.10;;;21.88;;
22046;SDS011;11187;49.412;20.956;2023-12-04T01:42:32;24.95;;;20.45;;
22046;SDS011;11187;49.412;20.956;2023-12-04T01:45:06;25.38;;;20.65;;
22046;SDS011;11187;49.412;20.956;2023-12-04T01:47:53;26.10;;;22.05;;
22046;SDS011;11187;49.412;20.956;2023-12-04T01:50:27;28.45;;;21.90;;
22046;SDS011;11187;49.412;20.956;2023-12-04T01:53:13;24.63;;;19.38;;
22046;SDS011;11187;49.412;20.956;2023-12-04T01:55:47;21.65;;;19.38;;
22046;SDS011;11187;49.412;20.956;2023-12-04T01:58:36;24.65;;;20.33;;
22046;SDS011;11187;49.412;20.956;2023-12-04T02:01:10;23.63;;;19.88;;
22046;SDS011;11187;49.412;20.956;2023-12-04T02:04:08;28.33;;;21.00;;
22046;SDS011;11187;49.412;20.956;2023-12-04T02:07:03;22.08;;;19.73;;
22046;SDS011;11187;49.412;20.956;2023-12-04T02:09:37;26.10;;;19.90;;
22046;SDS011;11187;49.412;20.956;2023-12-04T02:12:33;23.48;;;20.98;;
22046;SDS011;11187;49.412;20.956;2023-12-04T02:15:27;25.10;;;22.52;;
22046;SDS011;11187;49.412;20.956;2023-12-04T02:18:21;25.67;;;21.25;;
22046;SDS011;11187;49.412;20.956;2023-12-04T02:20:56;21.92;;;19.90;;
22046;SDS011;11187;49.412;20.956;2023-12-04T02:23:48;24.10;;;21.67;;
22046;SDS011;11187;49.412;20.956;2023-12-04T02:26:34;22.63;;;20.52;;
22046;SDS011;11187;49.412;20.956;2023-12-04T02:29:37;26.73;;;19.70;;
22046;SDS011;11187;49.412;20.956;2023-12-04T02:32:36;26.95;;;21.88;;
22046;SDS011;11187;49.412;20.956;2023-12-04T02:35:17;26.80;;;21.13;;
22046;SDS011;11187;49.412;20.956;2023-12-04T02:38:15;27.58;;;21.80;;
22046;SDS011;11187;49.412;20.956;2023-12-04T02:40:50;28.50;;;20.45;;
22046;SDS011;11187;49.412;20.956;2023-12-04T02:43:37;24.67;;;22.02;;
22046;SDS011;11187;49.412;20.956;2023-12-04T02:46:12;27.25;;;20.70;;
22046;SDS011;11187;49.412;20.956;2023-12-04T02:48:59;26.70;;;20.10;;
22046;SDS011;11187;49.412;20.956;2023-12-04T02:51:34;28.98;;;19.85;;
22046;SDS011;11187;49.412;20.956;2023-12-04T02:54:21;30.75;;;21.15;;
22046;SDS011;11187;49.412;20.956;2023-12-04T02:56:55;25.65;;;20.55;;
22046;SDS011;11187;49.412;20.956;2023-12-04T02:59:42;27.23;;;21.50;;
22046;SDS011;11187;49.412;20.956;2023-12-04T03:02:15;25.75;;;21.55;;
22046;SDS011;11187;49.412;20.956;2023-12-04T03:05:03;26.13;;;21.83;;
22046;SDS011;11187;49.412;20.956;2023-12-04T03:07:36;28.13;;;20.60;;
22046;SDS011;11187;49.412;20.956;2023-12-04T03:10:22;24.52;;;20.42;;
22046;SDS011;11187;49.412;20.956;2023-12-04T03:12:57;24.73;;;20.55;;
22046;SDS011;11187;49.412;20.956;2023-12-04T03:15:44;28.80;;;22.05;;
22046;SDS011;11187;49.412;20.956;2023-12-04T03:18:19;37.00;;;21.83;;
22046;SDS011;11187;49.412;20.956;2023-12-04T03:21:14;29.98;;;20.88;;
22046;SDS011;11187;49.412;20.956;2023-12-04T03:24:10;24.33;;;20.65;;
22046;SDS011;11187;49.412;20.956;2023-12-04T03:26:45;23.30;;;20.85;;
22046;SDS011;11187;49.412;20.956;2023-12-04T03:29:32;24.00;;;19.98;;
22046;SDS011;11187;49.412;20.956;2023-12-04T03:32:28;35.13;;;21.88;;
22046;SDS011;11187;49.412;20.956;2023-12-04T03:35:08;31.10;;;23.13;;
22046;SDS011;11187;49.412;20.956;2023-12-04T03:38:04;26.15;;;20.80;;
22046;SDS011;11187;49.412;20.956;2023-12-04T03:40:38;31.88;;;22.08;;
22046;SDS011;11187;49.412;20.956;2023-12-04T03:43:26;27.35;;;21.05;;
22046;SDS011;11187;49.412;20.956;2023-12-04T03:46:00;24.17;;;21.40;;
22046;SDS011;11187;49.412;20.956;2023-12-04T03:48:50;26.63;;;19.60;;
22046;SDS011;11187;49.412;20.956;2023-12-04T03:51:32;29.63;;;20.17;;
22046;SDS011;11187;49.412;20.956;2023-12-04T03:54:18;27.17;;;21.67;;
22046;SDS011;11187;49.412;20.956;2023-12-04T03:57:00;27.10;;;22.30;;
22046;SDS011;11187;49.412;20.956;2023-12-04T03:59:48;29.50;;;21.02;;
22046;SDS011;11187;49.412;20.956;2023-12-04T04:02:22;33.47;;;22.40;;
22046;SDS011;11187;49.412;20.956;2023-12-04T04:05:09;40.80;;;24.38;;
22046;SDS011;11187;49.412;20.956;2023-12-04T04:07:50;50.22;;;28.02;;
22046;SDS011;11187;49.412;20.956;2023-12-04T04:10:36;47.63;;;27.55;;
22046;SDS011;11187;49.412;20.956;2023-12-04T04:13:18;51.15;;;26.48;;
22046;SDS011;11187;49.412;20.956;2023-12-04T04:16:05;52.90;;;29.33;;
22046;SDS011;11187;49.412;20.956;2023-12-04T04:18:46;43.55;;;26.23;;
22046;SDS011;11187;49.412;20.956;2023-12-04T04:21:26;45.70;;;25.10;;
22046;SDS011;11187;49.412;20.956;2023-12-04T04:24:09;36.75;;;24.75;;
22046;SDS011;11187;49.412;20.956;2023-12-04T04:26:56;34.25;;;25.42;;
22046;SDS011;11187;49.412;20.956;2023-12-04T04:29:44;41.95;;;25.92;;
22046;SDS011;11187;49.412;20.956;2023-12-04T04:32:38;33.53;;;25.23;;
22046;SDS011;11187;49.412;20.956;2023-12-04T04:35:13;34.13;;;22.90;;
22046;SDS011;11187;49.412;20.956;2023-12-04T04:38:00;30.60;;;24.10;;
22046;SDS011;11187;49.412;20.956;2023-12-04T04:40:34;33.75;;;24.75;;
22046;SDS011;11187;49.412;20.956;2023-12-04T04:43:22;31.25;;;22.77;;
22046;SDS011;11187;49.412;20.956;2023-12-04T04:45:57;34.45;;;23.15;;
22046;SDS011;11187;49.412;20.956;2023-12-04T04:48:44;31.42;;;23.35;;
22046;SDS011;11187;49.412;20.956;2023-12-04T04:51:18;32.05;;;25.17;;
22046;SDS011;11187;49.412;20.956;2023-12-04T04:54:04;28.33;;;22.08;;
22046;SDS011;11187;49.412;20.956;2023-12-04T04:56:58;30.38;;;23.65;;
22046;SDS011;11187;49.412;20.956;2023-12-04T04:59:32;36.45;;;24.10;;
22046;SDS011;11187;49.412;20.956;2023-12-04T05:02:26;33.05;;;25.98;;
22046;SDS011;11187;49.412;20.956;2023-12-04T05:05:02;36.60;;;25.75;;
22046;SDS011;11187;49.412;20.956;2023-12-04T05:07:52;34.50;;;23.98;;
22046;SDS011;11187;49.412;20.956;2023-12-04T05:10:25;34.20;;;24.17;;
22046;SDS011;11187;49.412;20.956;2023-12-04T05:13:12;34.80;;;25.23;;
22046;SDS011;11187;49.412;20.956;2023-12-04T05:15:45;33.97;;;24.77;;
22046;SDS011;11187;49.412;20.956;2023-12-04T05:18:32;32.38;;;24.65;;
22046;SDS011;11187;49.412;20.956;2023-12-04T05:21:12;31.38;;;24.65;;
22046;SDS011;11187;49.412;20.956;2023-12-04T05:23:52;33.42;;;23.42;;
22046;SDS011;11187;49.412;20.956;2023-12-04T05:26:32;36.92;;;25.67;;
22046;SDS011;11187;49.412;20.956;2023-12-04T05:29:12;31.40;;;24.02;;
22046;SDS011;11187;49.412;20.956;2023-12-04T05:31:52;29.95;;;24.00;;
22046;SDS011;11187;49.412;20.956;2023-12-04T05:34:32;27.48;;;22.35;;
22046;SDS011;11187;49.412;20.956;2023-12-04T05:37:12;27.23;;;21.42;;
22046;SDS011;11187;49.412;20.956;2023-12-04T05:39:52;26.35;;;22.63;;
22046;SDS011;11187;49.412;20.956;2023-12-04T05:42:34;28.42;;;21.75;;
22046;SDS011;11187;49.412;20.956;2023-12-04T05:45:14;28.67;;;22.15;;
22046;SDS011;11187;49.412;20.956;2023-12-04T05:47:56;30.27;;;25.05;;
22046;SDS011;11187;49.412;20.956;2023-12-04T05:50:36;37.33;;;24.38;;
22046;SDS011;11187;49.412;20.956;2023-12-04T05:53:16;34.80;;;25.42;;
22046;SDS011;11187;49.412;20.956;2023-12-04T05:55:56;38.85;;;24.55;;
22046;SDS011;11187;49.412;20.956;2023-12-04T05:58:36;28.92;;;21.75;;
22046;SDS011;11187;49.412;20.956;2023-12-04T06:01:16;35.28;;;24.58;;
22046;SDS011;11187;49.412;20.956;2023-12-04T06:03:58;36.13;;;22.98;;
22046;SDS011;11187;49.412;20.956;2023-12-04T06:06:38;40.95;;;27.58;;
22046;SDS011;11187;49.412;20.956;2023-12-04T06:09:20;43.17;;;30.00;;
22046;SDS011;11187;49.412;20.956;2023-12-04T06:12:07;49.55;;;27.80;;
22046;SDS011;11187;49.412;20.956;2023-12-04T06:14:42;43.15;;;28.27;;
22046;SDS011;11187;49.412;20.956;2023-12-04T06:17:29;48.70;;;29.05;;
22046;SDS011;11187;49.412;20.956;2023-12-04T06:20:02;48.17;;;28.15;;
22046;SDS011;11187;49.412;20.956;2023-12-04T06:22:49;46.78;;;29.73;;
22046;SDS011;11187;49.412;20.956;2023-12-04T06:25:22;46.20;;;28.20;;
22046;SDS011;11187;49.412;20.956;2023-12-04T06:28:09;46.20;;;26.38;;
22046;SDS011;11187;49.412;20.956;2023-12-04T06:30:43;46.80;;;29.33;;
22046;SDS011;11187;49.412;20.956;2023-12-04T06:33:37;51.10;;;28.58;;
22046;SDS011;11187;49.412;20.956;2023-12-04T06:36:10;41.40;;;26.80;;
22046;SDS011;11187;49.412;20.956;2023-12-04T06:39:07;43.63;;;28.27;;
22046;SDS011;11187;49.412;20.956;2023-12-04T06:41:45;43.17;;;28.30;;
22046;SDS011;11187;49.412;20.956;2023-12-04T06:44:40;44.75;;;29.52;;
22046;SDS011;11187;49.412;20.956;2023-12-04T06:47:13;50.47;;;29.30;;
22046;SDS011;11187;49.412;20.956;2023-12-04T06:50:13;48.75;;;28.15;;
22046;SDS011;11187;49.412;20.956;2023-12-04T06:53:07;46.30;;;27.15;;
22046;SDS011;11187;49.412;20.956;2023-12-04T06:55:40;51.90;;;27.70;;
22046;SDS011;11187;49.412;20.956;2023-12-04T06:58:27;50.75;;;29.38;;
22046;SDS011;11187;49.412;20.956;2023-12-04T07:01:00;46.72;;;29.30;;
22046;SDS011;11187;49.412;20.956;2023-12-04T07:03:47;55.08;;;28.83;;
22046;SDS011;11187;49.412;20.956;2023-12-04T07:06:20;44.03;;;27.55;;
22046;SDS011;11187;49.412;20.956;2023-12-04T07:09:14;50.22;;;26.42;;
22046;SDS011;11187;49.412;20.956;2023-12-04T07:11:47;37.60;;;28.30;;
22046;SDS011;11187;49.412;20.956;2023-12-04T07:14:34;40.63;;;26.98;;
22046;SDS011;11187;49.412;20.956;2023-12-04T07:17:07;55.20;;;29.02;;
22046;SDS011;11187;49.412;20.956;2023-12-04T07:20:01;51.13;;;28.25;;
22046;SDS011;11187;49.412;20.956;2023-12-04T07:22:34;58.35;;;31.75;;
22046;SDS011;11187;49.412;20.956;2023-12-04T07:25:28;44.55;;;28.70;;
22046;SDS011;11187;49.412;20.956;2023-12-04T07:28:22;54.05;;;28.98;;
22046;SDS011;11187;49.412;20.956;2023-12-04T07:30:55;51.85;;;28.33;;
22046;SDS011;11187;49.412;20.956;2023-12-04T07:33:42;49.72;;;28.45;;
22046;SDS011;11187;49.412;20.956;2023-12-04T07:36:17;54.05;;;29.75;;
22046;SDS011;11187;49.412;20.956;2023-12-04T07:39:05;48.60;;;30.00;;
22046;SDS011;11187;49.412;20.956;2023-12-04T07:41:41;59.97;;;30.23;;
22046;SDS011;11187;49.412;20.956;2023-12-04T07:44:29;57.95;;;28.92;;
22046;SDS011;11187;49.412;20.956;2023-12-04T07:47:03;70.05;;;34.17;;
22046;SDS011;11187;49.412;20.956;2023-12-04T07:49:50;66.50;;;34.65;;
22046;SDS011;11187;49.412;20.956;2023-12-04T07:52:23;58.03;;;33.05;;
22046;SDS011;11187;49.412;20.956;2023-12-04T07:55:10;55.42;;;30.45;;
22046;SDS011;11187;49.412;20.956;2023-12-04T07:57:43;51.42;;;29.27;;
22046;SDS011;11187;49.412;20.956;2023-12-04T08:00:31;48.05;;;27.38;;
22046;SDS011;11187;49.412;20.956;2023-12-04T08:03:04;56.05;;;32.97;;
22046;SDS011;11187;49.412;20.956;2023-12-04T08:05:51;50.67;;;33.60;;
22046;SDS011;11187;49.412;20.956;2023-12-04T08:08:25;67.43;;;34.67;;
22046;SDS011;11187;49.412;20.956;2023-12-04T08:11:19;64.93;;;34.72;;
22046;SDS011;11187;49.412;20.956;2023-12-04T08:14:13;54.67;;;31.33;;
22046;SDS011;11187;49.412;20.956;2023-12-04T08:17:07;67.55;;;33.88;;
22046;SDS011;11187;49.412;20.956;2023-12-04T08:19:40;59.85;;;32.72;;
22046;SDS011;11187;49.412;20.956;2023-12-04T08:22:34;62.78;;;34.58;;
22046;SDS011;11187;49.412;20.956;2023-12-04T08:25:07;56.60;;;31.48;;
22046;SDS011;11187;49.412;20.956;2023-12-04T08:28:01;53.03;;;29.42;;
22046;SDS011;11187;49.412;20.956;2023-12-04T08:30:55;73.40;;;33.38;;
22046;SDS011;11187;49.412;20.956;2023-12-04T08:33:49;60.85;;;34.47;;
22046;SDS011;11187;49.412;20.956;2023-12-04T08:36:43;61.22;;;34.95;;
22046;SDS011;11187;49.412;20.956;2023-12-04T08:39:37;51.25;;;30.60;;
22046;SDS011;11187;49.412;20.956;2023-12-04T08:42:31;42.65;;;28.83;;
22046;SDS011;11187;49.412;20.956;2023-12-04T08:45:04;56.05;;;30.98;;
22046;SDS011;11187;49.412;20.956;2023-12-04T08:47:52;55.60;;;29.77;;
22046;SDS011;11187;49.412;20.956;2023-12-04T08:50:25;58.17;;;32.70;;
22046;SDS011;11187;49.412;20.956;2023-12-04T08:53:20;57.78;;;32.53;;
22046;SDS011;11187;49.412;20.956;2023-12-04T08:55:53;46.17;;;28.77;;
22046;SDS011;11187;49.412;20.956;2023-12-04T08:58:50;50.25;;;29.63;;
22046;SDS011;11187;49.412;20.956;2023-12-04T09:01:25;69.72;;;35.63;;
22046;SDS011;11187;49.412;20.956;2023-12-04T09:04:23;54.45;;;33.38;;
22046;SDS011;11187;49.412;20.956;2023-12-04T09:07:17;47.80;;;29.50;;
22046;SDS011;11187;49.412;20.956;2023-12-04T09:10:14;46.53;;;31.65;;
22046;SDS011;11187;49.412;20.956;2023-12-04T09:13:28;49.42;;;29.70;;
22046;SDS011;11187;49.412;20.956;2023-12-04T09:16:22;47.40;;;25.80;;
22046;SDS011;11187;49.412;20.956;2023-12-04T09:19:17;55.95;;;30.83;;
22046;SDS011;11187;49.412;20.956;2023-12-04T09:21:58;41.05;;;26.98;;
22046;SDS011;11187;49.412;20.956;2023-12-04T09:24:51;37.80;;;25.60;;
22046;SDS011;11187;49.412;20.956;2023-12-04T09:27:31;38.13;;;25.52;;
22046;SDS011;11187;49.412;20.956;2023-12-04T09:30:11;41.75;;;26.45;;
22046;SDS011;11187;49.412;20.956;2023-12-04T09:32:51;36.58;;;23.48;;
22046;SDS011;11187;49.412;20.956;2023-12-04T09:35:31;37.00;;;25.40;;
22046;SDS011;11187;49.412;20.956;2023-12-04T09:38:11;35.53;;;26.38;;
22046;SDS011;11187;49.412;20.956;2023-12-04T09:40:59;35.05;;;24.33;;
22046;SDS011;11187;49.412;20.956;2023-12-04T09:43:41;40.42;;;25.73;;
22046;SDS011;11187;49.412;20.956;2023-12-04T09:46:22;43.38;;;27.42;;
22046;SDS011;11187;49.412;20.956;2023-12-04T09:49:02;37.00;;;24.40;;
22046;SDS011;11187;49.412;20.956;2023-12-04T09:51:50;33.72;;;24.20;;
22046;SDS011;11187;49.412;20.956;2023-12-04T09:54:23;41.90;;;27.45;;
22046;SDS011;11187;49.412;20.956;2023-12-04T09:57:11;33.92;;;24.48;;
22046;SDS011;11187;49.412;20.956;2023-12-04T09:59:52;38.40;;;25.13;;
22046;SDS011;11187;49.412;20.956;2023-12-04T10:02:32;30.50;;;22.30;;
22046;SDS011;11187;49.412;20.956;2023-12-04T10:05:13;28.10;;;23.08;;
22046;SDS011;11187;49.412;20.956;2023-12-04T10:07:54;30.00;;;21.20;;
22046;SDS011;11187;49.412;20.956;2023-12-04T10:10:34;25.30;;;20.48;;
22046;SDS011;11187;49.412;20.956;2023-12-04T10:13:21;26.92;;;19.98;;
22046;SDS011;11187;49.412;20.956;2023-12-04T10:16:36;28.08;;;22.23;;
22046;SDS011;11187;49.412;20.956;2023-12-04T10:19:27;27.98;;;21.13;;
22046;SDS011;11187;49.412;20.956;2023-12-04T10:22:11;27.75;;;20.23;;
22046;SDS011;11187;49.412;20.956;2023-12-04T10:24:58;22.88;;;20.45;;
22046;SDS011;11187;49.412;20.956;2023-12-04T10:27:31;22.13;;;19.75;;
22046;SDS011;11187;49.412;20.956;2023-12-04T10:30:24;21.17;;;18.98;;
22046;SDS011;11187;49.412;20.956;2023-12-04T10:33:02;23.70;;;19.02;;
22046;SDS011;11187;49.412;20.956;2023-12-04T10:35:51;23.70;;;17.73;;
22046;SDS011;11187;49.412;20.956;2023-12-04T10:38:31;21.13;;;18.67;;
22046;SDS011;11187;49.412;20.956;2023-12-04T10:41:13;23.08;;;20.75;;
22046;SDS011;11187;49.412;20.956;2023-12-04T10:43:54;24.45;;;19.02;;
22046;SDS011;11187;49.412;20.956;2023-12-04T10:46:44;20.30;;;18.33;;
22046;SDS011;11187;49.412;20.956;2023-12-04T10:49:27;19.60;;;17.52;;
22046;SDS011;11187;49.412;20.956;2023-12-04T10:52:15;25.33;;;20.38;;
22046;SDS011;11187;49.412;20.956;2023-12-04T10:54:49;24.60;;;20.92;;
22046;SDS011;11187;49.412;20.956;2023-12-04T10:57:39;26.17;;;20.88;;
22046;SDS011;11187;49.412;20.956;2023-12-04T11:00:23;21.00;;;17.75;;
22046;SDS011;11187;49.412;20.956;2023-12-04T11:03:08;18.92;;;16.92;;
22046;SDS011;11187;49.412;20.956;2023-12-04T11:05:50;18.67;;;17.08;;
22046;SDS011;11187;49.412;20.956;2023-12-04T11:08:41;21.63;;;19.50;;
22046;SDS011;11187;49.412;20.956;2023-12-04T11:11:25;17.75;;;16.25;;
22046;SDS011;11187;49.412;20.956;2023-12-04T11:14:10;18.42;;;16.75;;
22046;SDS011;11187;49.412;20.956;2023-12-04T11:16:57;17.60;;;15.88;;
22046;SDS011;11187;49.412;20.956;2023-12-04T11:19:52;19.15;;;17.35;;
22046;SDS011;11187;49.412;20.956;2023-12-04T11:22:35;20.50;;;18.45;;
22046;SDS011;11187;49.412;20.956;2023-12-04T11:25:16;22.30;;;18.95;;
22046;SDS011;11187;49.412;20.956;2023-12-04T11:27:56;26.90;;;19.88;;
22046;SDS011;11187;49.412;20.956;2023-12-04T11:30:38;20.55;;;17.90;;
22046;SDS011;11187;49.412;20.956;2023-12-04T11:33:19;24.23;;;20.08;;
22046;SDS011;11187;49.412;20.956;2023-12-04T11:36:13;29.63;;;23.02;;
22046;SDS011;11187;49.412;20.956;2023-12-04T11:38:55;26.45;;;22.20;;
22046;SDS011;11187;49.412;20.956;2023-12-04T11:41:43;23.63;;;19.30;;
22046;SDS011;11187;49.412;20.956;2023-12-04T11:44:18;21.17;;;19.00;;
22046;SDS011;11187;49.412;20.956;2023-12-04T11:47:07;22.27;;;19.75;;
22046;SDS011;11187;49.412;20.956;2023-12-04T11:49:47;27.02;;;22.05;;
22046;SDS011;11187;49.412;20.956;2023-12-04T11:52:34;20.75;;;18.88;;
22046;SDS011;11187;49.412;20.956;2023-12-04T11:55:20;23.13;;;20.88;;
22046;SDS011;11187;49.412;20.956;2023-12-04T11:58:09;23.15;;;20.95;;
22046;SDS011;11187;49.412;20.956;2023-12-04T12:00:51;20.52;;;18.50;;
22046;SDS011;11187;49.412;20.956;2023-12-04T12:03:34;20.33;;;18.30;;
22046;SDS011;11187;49.412;20.956;2023-12-04T12:06:14;25.52;;;21.60;;
22046;SDS011;11187;49.412;20.956;2023-12-04T12:09:01;25.27;;;22.80;;
22046;SDS011;11187;49.412;20.956;2023-12-04T12:11:34;22.27;;;19.98;;
22046;SDS011;11187;49.412;20.956;2023-12-04T12:14:21;22.00;;;19.65;;
22046;SDS011;11187;49.412;20.956;2023-12-04T12:16:55;22.55;;;18.95;;
22046;SDS011;11187;49.412;20.956;2023-12-04T12:19:44;18.88;;;16.88;;
22046;SDS011;11187;49.412;20.956;2023-12-04T12:22:17;19.38;;;17.65;;
22046;SDS011;11187;49.412;20.956;2023-12-04T12:25:04;19.27;;;17.27;;
22046;SDS011;11187;49.412;20.956;2023-12-04T12:27:44;17.60;;;16.00;;
22046;SDS011;11187;49.412;20.956;2023-12-04T12:30:26;19.33;;;17.33;;
22046;SDS011;11187;49.412;20.956;2023-12-04T12:33:06;18.40;;;16.73;;
22046;SDS011;11187;49.412;20.956;2023-12-04T12:35:53;19.27;;;17.33;;
22046;SDS011;11187;49.412;20.956;2023-12-04T12:38:37;19.13;;;17.15;;
22046;SDS011;11187;49.412;20.956;2023-12-04T12:41:29;19.27;;;17.38;;
22046;SDS011;11187;49.412;20.956;2023-12-04T12:44:10;21.75;;;19.65;;
22046;SDS011;11187;49.412;20.956;2023-12-04T12:46:50;21.00;;;18.85;;
22046;SDS011;11187;49.412;20.956;2023-12-04T12:49:31;20.40;;;18.38;;
22046;SDS011;11187;49.412;20.956;2023-12-04T12:52:19;24.75;;;20.92;;
22046;SDS011;11187;49.412;20.956;2023-12-04T12:54:53;27.80;;;21.35;;
22046;SDS011;11187;49.412;20.956;2023-12-04T12:57:40;21.70;;;19.17;;
22046;SDS011;11187;49.412;20.956;2023-12-04T13:00:20;20.10;;;18.02;;
22046;SDS011;11187;49.412;20.956;2023-12-04T13:03:13;16.40;;;14.60;;
22046;SDS011;11187;49.412;20.956;2023-12-04T13:05:54;17.17;;;15.07;;
22046;SDS011;11187;49.412;20.956;2023-12-04T13:08:41;22.83;;;20.38;;
22046;SDS011;11187;49.412;20.956;2023-12-04T13:11:14;26.33;;;18.98;;
22046;SDS011;11187;49.412;20.956;2023-12-04T13:14:01;20.65;;;18.48;;
22046;SDS011;11187;49.412;20.956;2023-12-04T13:16:34;18.20;;;16.27;;
22046;SDS011;11187;49.412;20.956;2023-12-04T13:19:21;19.83;;;17.33;;
22046;SDS011;11187;49.412;20.956;2023-12-04T13:21:57;24.38;;;20.00;;
22046;SDS011;11187;49.412;20.956;2023-12-04T13:24:44;23.60;;;19.67;;
22046;SDS011;11187;49.412;20.956;2023-12-04T13:27:24;20.77;;;18.60;;
22046;SDS011;11187;49.412;20.956;2023-12-04T13:30:05;22.85;;;18.17;;
22046;SDS011;11187;49.412;20.956;2023-12-04T13:32:46;26.70;;;21.60;;
22046;SDS011;11187;49.412;20.956;2023-12-04T13:35:40;24.25;;;21.63;;
22046;SDS011;11187;49.412;20.956;2023-12-04T13:38:34;20.38;;;18.25;;
22046;SDS011;11187;49.412;20.956;2023-12-04T13:41:28;19.25;;;17.13;;
22046;SDS011;11187;49.412;20.956;2023-12-04T13:44:41;19.85;;;17.85;;
22046;SDS011;11187;49.412;20.956;2023-12-04T13:47:14;23.15;;;18.55;;
22046;SDS011;11187;49.412;20.956;2023-12-04T13:50:01;22.45;;;17.75;;
22046;SDS011;11187;49.412;20.956;2023-12-04T13:52:35;20.77;;;16.83;;
22046;SDS011;11187;49.412;20.956;2023-12-04T13:55:26;18.52;;;16.27;;
22046;SDS011;11187;49.412;20.956;2023-12-04T13:58:19;21.75;;;17.52;;
22046;SDS011;11187;49.412;20.956;2023-12-04T14:01:27;24.63;;;19.42;;
22046;SDS011;11187;49.412;20.956;2023-12-04T14:04:21;20.40;;;18.27;;
22046;SDS011;11187;49.412;20.956;2023-12-04T14:06:57;25.00;;;20.80;;
22046;SDS011;11187;49.412;20.956;2023-12-04T14:09:45;25.65;;;22.23;;
22046;SDS011;11187;49.412;20.956;2023-12-04T14:12:19;27.98;;;20.95;;
22046;SDS011;11187;49.412;20.956;2023-12-04T14:15:14;31.52;;;24.98;;
22046;SDS011;11187;49.412;20.956;2023-12-04T14:18:08;35.40;;;24.45;;
22046;SDS011;11187;49.412;20.956;2023-12-04T14:20:41;39.60;;;25.67;;
22046;SDS011;11187;49.412;20.956;2023-12-04T14:23:28;46.58;;;27.00;;
22046;SDS011;11187;49.412;20.956;2023-12-04T14:26:01;37.58;;;25.27;;
22046;SDS011;11187;49.412;20.956;2023-12-04T14:28:56;37.75;;;26.20;;
22046;SDS011;11187;49.412;20.956;2023-12-04T14:31:30;36.13;;;25.40;;
22046;SDS011;11187;49.412;20.956;2023-12-04T14:34:24;40.65;;;24.88;;
22046;SDS011;11187;49.412;20.956;2023-12-04T14:36:57;32.28;;;22.65;;
22046;SDS011;11187;49.412;20.956;2023-12-04T14:39:52;36.42;;;24.05;;
22046;SDS011;11187;49.412;20.956;2023-12-04T14:42:25;46.22;;;25.23;;
22046;SDS011;11187;49.412;20.956;2023-12-04T14:45:14;40.33;;;23.52;;
22046;SDS011;11187;49.412;20.956;2023-12-04T14:47:49;44.50;;;27.65;;
22046;SDS011;11187;49.412;20.956;2023-12-04T14:50:44;59.30;;;31.63;;
22046;SDS011;11187;49.412;20.956;2023-12-04T14:53:41;96.18;;;37.47;;
22046;SDS011;11187;49.412;20.956;2023-12-04T14:56:30;110.43;;;44.60;;
22046;SDS011;11187;49.412;20.956;2023-12-04T14:59:17;95.88;;;44.05;;
22046;SDS011;11187;49.412;20.956;2023-12-04T15:02:16;74.07;;;34.20;;
22046;SDS011;11187;49.412;20.956;2023-12-04T15:05:18;72.13;;;34.60;;
22046;SDS011;11187;49.412;20.956;2023-12-04T15:07:58;84.63;;;34.80;;
22046;SDS011;11187;49.412;20.956;2023-12-04T15:10:50;99.80;;;40.35;;
22046;SDS011;11187;49.412;20.956;2023-12-04T15:14:00;58.15;;;30.90;;
22046;SDS011;11187;49.412;20.956;2023-12-04T15:17:04;53.65;;;28.85;;
22046;SDS011;11187;49.412;20.956;2023-12-04T15:20:02;54.58;;;33.42;;
22046;SDS011;11187;49.412;20.956;2023-12-04T15:22:49;66.03;;;35.85;;
22046;SDS011;11187;49.412;20.956;2023-12-04T15:25:22;53.58;;;32.30;;
22046;SDS011;11187;49.412;20.956;2023-12-04T15:28:09;60.85;;;31.15;;
22046;SDS011;11187;49.412;20.956;2023-12-04T15:30:49;54.30;;;29.42;;
22046;SDS011;11187;49.412;20.956;2023-12-04T15:33:43;66.05;;;31.15;;
22046;SDS011;11187;49.412;20.956;2023-12-04T15:36:37;113.78;;;51.30;;
22046;SDS011;11187;49.412;20.956;2023-12-04T15:39:10;89.22;;;43.92;;
22046;SDS011;11187;49.412;20.956;2023-12-04T15:41:59;101.63;;;45.35;;
22046;SDS011;11187;49.412;20.956;2023-12-04T15:44:33;78.97;;;39.58;;
22046;SDS011;11187;49.412;20.956;2023-12-04T15:47:13;74.70;;;38.40;;